sensor_id;sensor_type;location;lat;lon;timestamp;pressure;altitude;pressure_sealevel;temperature;humidity
50292;BME280;36190;54.980;73.388;2023-07-20T00:00:18;98878.38;;;18.94;86.63
50292;BME280;36190;54.980;73.388;2023-07-20T00:02:50;98884.59;;;18.95;86.80
50292;BME280;36190;54.980;73.388;2023-07-20T00:05:17;98893.28;;;18.97;86.52
50292;BME280;36190;54.980;73.388;2023-07-20T00:07:47;98879.47;;;18.99;86.51
50292;BME280;36190;54.980;73.388;2023-07-20T00:10:20;98885.75;;;19.04;86.26
50292;BME280;36190;54.980;73.388;2023-07-20T00:12:49;98888.47;;;19.04;86.10
50292;BME280;36190;54.980;73.388;2023-07-20T00:15:16;98872.53;;;19.03;86.16
50292;BME280;36190;54.980;73.388;2023-07-20T00:17:43;98881.22;;;19.10;86.19
50292;BME280;36190;54.980;73.388;2023-07-20T00:20:11;98878.53;;;19.15;86.13
50292;BME280;36190;54.980;73.388;2023-07-20T00:22:38;98873.69;;;19.22;85.92
50292;BME280;36190;54.980;73.388;2023-07-20T00:25:06;98871.56;;;19.30;85.77
50292;BME280;36190;54.980;73.388;2023-07-20T00:27:34;98869.44;;;19.37;85.46
50292;BME280;36190;54.980;73.388;2023-07-20T00:30:03;98864.56;;;19.39;85.47
50292;BME280;36190;54.980;73.388;2023-07-20T00:32:30;98868.91;;;19.40;85.41
50292;BME280;36190;54.980;73.388;2023-07-20T00:34:58;98879.75;;;19.45;85.11
50292;BME280;36190;54.980;73.388;2023-07-20T00:37:25;98878.13;;;19.49;85.08
50292;BME280;36190;54.980;73.388;2023-07-20T00:39:53;98872.22;;;19.52;84.89
50292;BME280;36190;54.980;73.388;2023-07-20T00:42:20;98877.91;;;19.56;85.03
50292;BME280;36190;54.980;73.388;2023-07-20T00:44:47;98866.53;;;19.59;84.83
50292;BME280;36190;54.980;73.388;2023-07-20T00:47:16;98873.84;;;19.64;84.77
50292;BME280;36190;54.980;73.388;2023-07-20T00:49:44;98873.34;;;19.67;84.61
50292;BME280;36190;54.980;73.388;2023-07-20T00:52:13;98865.75;;;19.69;84.59
50292;BME280;36190;54.980;73.388;2023-07-20T00:54:41;98868.75;;;19.78;84.43
50292;BME280;36190;54.980;73.388;2023-07-20T00:57:09;98870.13;;;19.81;84.18
50292;BME280;36190;54.980;73.388;2023-07-20T00:59:37;98877.72;;;19.89;84.22
50292;BME280;36190;54.980;73.388;2023-07-20T01:02:04;98873.19;;;19.95;83.90
50292;BME280;36190;54.980;73.388;2023-07-20T01:04:33;98878.84;;;20.03;83.95
50292;BME280;36190;54.980;73.388;2023-07-20T01:07:11;98878.59;;;20.10;83.69
50292;BME280;36190;54.980;73.388;2023-07-20T01:09:44;98878.88;;;20.19;83.38
50292;BME280;36190;54.980;73.388;2023-07-20T01:12:18;98876.47;;;20.28;83.17
50292;BME280;36190;54.980;73.388;2023-07-20T01:14:51;98877.81;;;20.36;82.81
50292;BME280;36190;54.980;73.388;2023-07-20T01:17:19;98876.19;;;20.40;82.58
50292;BME280;36190;54.980;73.388;2023-07-20T01:19:47;98880.50;;;20.46;82.61
50292;BME280;36190;54.980;73.388;2023-07-20T01:22:26;98886.22;;;20.55;82.36
50292;BME280;36190;54.980;73.388;2023-07-20T01:25:11;98876.19;;;20.66;82.00
50292;BME280;36190;54.980;73.388;2023-07-20T01:28:06;98874.28;;;20.77;81.59
50292;BME280;36190;54.980;73.388;2023-07-20T01:30:56;98865.31;;;20.76;81.32
50292;BME280;36190;54.980;73.388;2023-07-20T01:33:28;98881.06;;;20.90;80.97
50292;BME280;36190;54.980;73.388;2023-07-20T01:35:59;98887.28;;;20.95;80.78
50292;BME280;36190;54.980;73.388;2023-07-20T01:38:28;98890.25;;;20.99;80.73
50292;BME280;36190;54.980;73.388;2023-07-20T01:40:56;98900.28;;;21.04;80.53
50292;BME280;36190;54.980;73.388;2023-07-20T01:43:24;98901.34;;;21.02;80.39
50292;BME280;36190;54.980;73.388;2023-07-20T01:45:51;98896.19;;;21.06;80.44
50292;BME280;36190;54.980;73.388;2023-07-20T01:48:19;98891.84;;;21.10;80.39
50292;BME280;36190;54.980;73.388;2023-07-20T01:50:47;98893.47;;;21.11;80.40
50292;BME280;36190;54.980;73.388;2023-07-20T01:53:15;98891.31;;;21.13;80.42
50292;BME280;36190;54.980;73.388;2023-07-20T01:55:42;98889.66;;;21.18;80.45
50292;BME280;36190;54.980;73.388;2023-07-20T01:58:10;98872.81;;;21.26;80.16
50292;BME280;36190;54.980;73.388;2023-07-20T02:00:37;98861.38;;;21.34;79.94
50292;BME280;36190;54.980;73.388;2023-07-20T02:03:04;98868.69;;;21.44;79.57
50292;BME280;36190;54.980;73.388;2023-07-20T02:05:32;98871.88;;;21.56;79.47
50292;BME280;36190;54.980;73.388;2023-07-20T02:08:01;98868.56;;;21.65;78.86
50292;BME280;36190;54.980;73.388;2023-07-20T02:10:28;98871.56;;;21.74;78.77
50292;BME280;36190;54.980;73.388;2023-07-20T02:12:55;98879.91;;;21.82;78.22
50292;BME280;36190;54.980;73.388;2023-07-20T02:15:23;98870.38;;;21.90;78.07
50292;BME280;36190;54.980;73.388;2023-07-20T02:17:50;98888.22;;;22.02;77.89
50292;BME280;36190;54.980;73.388;2023-07-20T02:20:17;98880.00;;;22.12;77.77
50292;BME280;36190;54.980;73.388;2023-07-20T02:22:45;98881.31;;;22.20;77.33
50292;BME280;36190;54.980;73.388;2023-07-20T02:25:14;98878.25;;;22.26;77.10
50292;BME280;36190;54.980;73.388;2023-07-20T02:27:41;98871.97;;;22.31;76.82
50292;BME280;36190;54.980;73.388;2023-07-20T02:30:09;98868.94;;;22.38;76.57
50292;BME280;36190;54.980;73.388;2023-07-20T02:32:37;98871.59;;;22.43;76.43
50292;BME280;36190;54.980;73.388;2023-07-20T02:35:05;98881.34;;;22.49;75.93
50292;BME280;36190;54.980;73.388;2023-07-20T02:37:33;98886.19;;;22.58;75.83
50292;BME280;36190;54.980;73.388;2023-07-20T02:40:00;98888.59;;;22.64;75.40
50292;BME280;36190;54.980;73.388;2023-07-20T02:42:30;98888.25;;;22.71;75.20
50292;BME280;36190;54.980;73.388;2023-07-20T02:44:58;98890.91;;;22.76;74.95
50292;BME280;36190;54.980;73.388;2023-07-20T02:47:25;98885.72;;;22.80;74.53
50292;BME280;36190;54.980;73.388;2023-07-20T02:49:52;98884.84;;;22.85;74.25
50292;BME280;36190;54.980;73.388;2023-07-20T02:52:20;98879.38;;;22.90;74.15
50292;BME280;36190;54.980;73.388;2023-07-20T02:54:47;98894.53;;;22.96;74.14
50292;BME280;36190;54.980;73.388;2023-07-20T02:57:14;98886.34;;;23.01;74.02
50292;BME280;36190;54.980;73.388;2023-07-20T02:59:43;98881.94;;;23.05;73.56
50292;BME280;36190;54.980;73.388;2023-07-20T03:02:10;98884.59;;;23.11;73.42
50292;BME280;36190;54.980;73.388;2023-07-20T03:04:38;98887.25;;;23.16;73.68
50292;BME280;36190;54.980;73.388;2023-07-20T03:07:05;98876.03;;;23.23;73.64
50292;BME280;36190;54.980;73.388;2023-07-20T03:09:33;98870.88;;;23.21;73.23
50292;BME280;36190;54.980;73.388;2023-07-20T03:12:00;98885.50;;;23.30;73.20
50292;BME280;36190;54.980;73.388;2023-07-20T03:14:30;98885.44;;;23.35;73.35
50292;BME280;36190;54.980;73.388;2023-07-20T03:16:59;98891.34;;;23.43;73.31
50292;BME280;36190;54.980;73.388;2023-07-20T03:19:26;98884.16;;;23.52;72.69
50292;BME280;36190;54.980;73.388;2023-07-20T03:21:54;98887.91;;;23.56;72.27
50292;BME280;36190;54.980;73.388;2023-07-20T03:24:21;98884.84;;;23.63;72.44
50292;BME280;36190;54.980;73.388;2023-07-20T03:26:49;98884.47;;;23.70;72.26
50292;BME280;36190;54.980;73.388;2023-07-20T03:29:16;98887.63;;;23.77;71.79
50292;BME280;36190;54.980;73.388;2023-07-20T03:31:44;98884.53;;;23.84;71.59
50292;BME280;36190;54.980;73.388;2023-07-20T03:34:12;98891.81;;;23.88;71.46
50292;BME280;36190;54.980;73.388;2023-07-20T03:36:40;98889.03;;;23.94;71.59
50292;BME280;36190;54.980;73.388;2023-07-20T03:39:07;98885.16;;;24.00;70.99
50292;BME280;36190;54.980;73.388;2023-07-20T03:41:35;98891.56;;;24.09;70.95
50292;BME280;36190;54.980;73.388;2023-07-20T03:44:02;98892.53;;;24.19;70.19
50292;BME280;36190;54.980;73.388;2023-07-20T03:46:30;98879.56;;;24.29;70.03
50292;BME280;36190;54.980;73.388;2023-07-20T03:48:59;98885.72;;;24.35;69.60
50292;BME280;36190;54.980;73.388;2023-07-20T03:51:28;98890.00;;;24.41;69.10
50292;BME280;36190;54.980;73.388;2023-07-20T03:53:56;98892.63;;;24.47;68.36
50292;BME280;36190;54.980;73.388;2023-07-20T03:56:23;98894.75;;;24.50;68.31
50292;BME280;36190;54.980;73.388;2023-07-20T03:58:51;98893.53;;;24.56;67.30
50292;BME280;36190;54.980;73.388;2023-07-20T04:01:18;98895.69;;;24.59;66.70
50292;BME280;36190;54.980;73.388;2023-07-20T04:03:45;98904.59;;;24.65;66.72
50292;BME280;36190;54.980;73.388;2023-07-20T04:06:13;98897.44;;;24.69;66.22
50292;BME280;36190;54.980;73.388;2023-07-20T04:08:44;98900.06;;;24.74;66.41
50292;BME280;36190;54.980;73.388;2023-07-20T04:11:12;98888.78;;;24.81;65.76
50292;BME280;36190;54.980;73.388;2023-07-20T04:13:40;98895.78;;;24.87;65.71
50292;BME280;36190;54.980;73.388;2023-07-20T04:16:07;98893.47;;;24.94;65.48
50292;BME280;36190;54.980;73.388;2023-07-20T04:18:35;98899.34;;;25.02;65.56
50292;BME280;36190;54.980;73.388;2023-07-20T04:21:02;98891.56;;;25.09;65.00
50292;BME280;36190;54.980;73.388;2023-07-20T04:23:29;98888.75;;;25.14;64.12
50292;BME280;36190;54.980;73.388;2023-07-20T04:25:58;98892.69;;;25.22;63.28
50292;BME280;36190;54.980;73.388;2023-07-20T04:28:26;98910.06;;;25.26;63.17
50292;BME280;36190;54.980;73.388;2023-07-20T04:30:53;98899.34;;;25.30;62.67
50292;BME280;36190;54.980;73.388;2023-07-20T04:33:21;98890.75;;;25.36;62.20
50292;BME280;36190;54.980;73.388;2023-07-20T04:35:50;98893.38;;;25.41;61.73
50292;BME280;36190;54.980;73.388;2023-07-20T04:38:18;98903.31;;;25.51;61.40
50292;BME280;36190;54.980;73.388;2023-07-20T04:40:47;98905.41;;;25.54;61.13
50292;BME280;36190;54.980;73.388;2023-07-20T04:43:17;98900.97;;;25.59;60.96
50292;BME280;36190;54.980;73.388;2023-07-20T04:45:45;98905.22;;;25.65;60.95
50292;BME280;36190;54.980;73.388;2023-07-20T04:48:14;98902.34;;;25.70;60.43
50292;BME280;36190;54.980;73.388;2023-07-20T04:50:42;98899.81;;;25.74;60.37
50292;BME280;36190;54.980;73.388;2023-07-20T04:53:10;98894.25;;;25.79;59.57
50292;BME280;36190;54.980;73.388;2023-07-20T04:55:38;98896.91;;;25.84;59.47
50292;BME280;36190;54.980;73.388;2023-07-20T04:58:05;98897.09;;;25.88;59.03
50292;BME280;36190;54.980;73.388;2023-07-20T05:00:35;98895.84;;;25.94;59.11
50292;BME280;36190;54.980;73.388;2023-07-20T05:03:02;98896.22;;;26.01;58.42
50292;BME280;36190;54.980;73.388;2023-07-20T05:05:31;98886.31;;;26.05;57.42
50292;BME280;36190;54.980;73.388;2023-07-20T05:07:58;98885.69;;;26.08;57.13
50292;BME280;36190;54.980;73.388;2023-07-20T05:10:26;98897.63;;;26.13;56.89
50292;BME280;36190;54.980;73.388;2023-07-20T05:12:53;98900.69;;;26.20;56.71
50292;BME280;36190;54.980;73.388;2023-07-20T05:15:21;98907.69;;;26.26;56.30
50292;BME280;36190;54.980;73.388;2023-07-20T05:17:49;98904.03;;;26.31;56.14
50292;BME280;36190;54.980;73.388;2023-07-20T05:20:17;98889.44;;;26.35;55.63
50292;BME280;36190;54.980;73.388;2023-07-20T05:22:44;98903.28;;;26.39;55.09
50292;BME280;36190;54.980;73.388;2023-07-20T05:25:12;98901.38;;;26.40;54.47
50292;BME280;36190;54.980;73.388;2023-07-20T05:27:40;98892.06;;;26.41;54.39
50292;BME280;36190;54.980;73.388;2023-07-20T05:30:08;98887.59;;;26.45;54.66
50292;BME280;36190;54.980;73.388;2023-07-20T05:32:35;98901.59;;;26.52;54.31
50292;BME280;36190;54.980;73.388;2023-07-20T05:35:05;98889.75;;;26.57;54.56
50292;BME280;36190;54.980;73.388;2023-07-20T05:37:33;98896.38;;;26.64;54.34
50292;BME280;36190;54.980;73.388;2023-07-20T05:40:00;98891.09;;;26.68;54.17
50292;BME280;36190;54.980;73.388;2023-07-20T05:42:28;98887.44;;;26.73;54.27
50292;BME280;36190;54.980;73.388;2023-07-20T05:44:55;98891.66;;;26.79;53.96
50292;BME280;36190;54.980;73.388;2023-07-20T05:47:23;98886.53;;;26.86;53.52
50292;BME280;36190;54.980;73.388;2023-07-20T05:49:50;98882.25;;;26.94;52.60
50292;BME280;36190;54.980;73.388;2023-07-20T05:52:19;98881.47;;;26.94;52.18
50292;BME280;36190;54.980;73.388;2023-07-20T05:54:47;98897.06;;;26.93;51.55
50292;BME280;36190;54.980;73.388;2023-07-20T05:57:14;98896.09;;;26.98;51.74
50292;BME280;36190;54.980;73.388;2023-07-20T05:59:41;98886.00;;;27.07;51.27
50292;BME280;36190;54.980;73.388;2023-07-20T06:02:10;98884.75;;;27.13;51.09
50292;BME280;36190;54.980;73.388;2023-07-20T06:04:38;98890.69;;;27.15;50.67
50292;BME280;36190;54.980;73.388;2023-07-20T06:07:06;98886.84;;;27.16;50.53
50292;BME280;36190;54.980;73.388;2023-07-20T06:09:36;98888.78;;;27.16;50.68
50292;BME280;36190;54.980;73.388;2023-07-20T06:12:04;98887.84;;;27.21;50.89
50292;BME280;36190;54.980;73.388;2023-07-20T06:14:31;98888.97;;;27.20;51.27
50292;BME280;36190;54.980;73.388;2023-07-20T06:16:59;98886.22;;;27.20;51.57
50292;BME280;36190;54.980;73.388;2023-07-20T06:19:26;98893.97;;;27.26;51.68
50292;BME280;36190;54.980;73.388;2023-07-20T06:21:53;98877.06;;;27.33;51.36
50292;BME280;36190;54.980;73.388;2023-07-20T06:24:21;98886.75;;;27.39;51.11
50292;BME280;36190;54.980;73.388;2023-07-20T06:26:49;98878.22;;;27.41;51.27
50292;BME280;36190;54.980;73.388;2023-07-20T06:29:17;98883.22;;;27.48;51.07
50292;BME280;36190;54.980;73.388;2023-07-20T06:31:44;98883.56;;;27.55;50.41
50292;BME280;36190;54.980;73.388;2023-07-20T06:34:12;98875.41;;;27.64;49.77
50292;BME280;36190;54.980;73.388;2023-07-20T06:36:39;98870.41;;;27.75;49.68
50292;BME280;36190;54.980;73.388;2023-07-20T06:39:06;98883.47;;;27.86;49.71
50292;BME280;36190;54.980;73.388;2023-07-20T06:41:34;98886.06;;;27.92;49.81
50292;BME280;36190;54.980;73.388;2023-07-20T06:44:04;98880.56;;;27.92;49.77
50292;BME280;36190;54.980;73.388;2023-07-20T06:46:31;98874.28;;;27.91;50.03
50292;BME280;36190;54.980;73.388;2023-07-20T06:48:58;98877.69;;;27.97;49.78
50292;BME280;36190;54.980;73.388;2023-07-20T06:51:26;98875.59;;;28.03;49.93
50292;BME280;36190;54.980;73.388;2023-07-20T06:53:53;98863.97;;;28.06;49.41
50292;BME280;36190;54.980;73.388;2023-07-20T06:56:21;98872.84;;;28.20;49.12
50292;BME280;36190;54.980;73.388;2023-07-20T06:58:50;98867.69;;;28.27;48.99
50292;BME280;36190;54.980;73.388;2023-07-20T07:01:18;98874.63;;;28.34;47.96
50292;BME280;36190;54.980;73.388;2023-07-20T07:03:47;98867.66;;;28.45;47.20
50292;BME280;36190;54.980;73.388;2023-07-20T07:06:14;98869.56;;;28.53;46.38
50292;BME280;36190;54.980;73.388;2023-07-20T07:08:41;98872.94;;;28.59;46.57
50292;BME280;36190;54.980;73.388;2023-07-20T07:11:10;98859.84;;;28.74;45.55
50292;BME280;36190;54.980;73.388;2023-07-20T07:13:37;98846.97;;;29.04;45.38
50292;BME280;36190;54.980;73.388;2023-07-20T07:16:05;98853.72;;;29.46;44.49
50292;BME280;36190;54.980;73.388;2023-07-20T07:18:34;98848.47;;;29.83;44.00
50292;BME280;36190;54.980;73.388;2023-07-20T07:21:01;98851.75;;;29.98;44.22
50292;BME280;36190;54.980;73.388;2023-07-20T07:23:28;98849.00;;;29.98;44.38
50292;BME280;36190;54.980;73.388;2023-07-20T07:25:56;98847.25;;;29.93;44.48
50292;BME280;36190;54.980;73.388;2023-07-20T07:28:23;98852.13;;;29.87;44.54
50292;BME280;36190;54.980;73.388;2023-07-20T07:30:50;98850.06;;;29.84;44.79
50292;BME280;36190;54.980;73.388;2023-07-20T07:33:18;98846.13;;;29.73;44.73
50292;BME280;36190;54.980;73.388;2023-07-20T07:35:47;98850.06;;;29.63;44.72
50292;BME280;36190;54.980;73.388;2023-07-20T07:38:14;98859.78;;;29.60;44.91
50292;BME280;36190;54.980;73.388;2023-07-20T07:40:41;98850.47;;;29.53;44.62
50292;BME280;36190;54.980;73.388;2023-07-20T07:43:09;98848.88;;;29.52;44.96
50292;BME280;36190;54.980;73.388;2023-07-20T07:45:37;98849.94;;;29.59;44.42
50292;BME280;36190;54.980;73.388;2023-07-20T07:48:05;98854.09;;;29.66;44.09
50292;BME280;36190;54.980;73.388;2023-07-20T07:50:33;98848.88;;;29.73;43.70
50292;BME280;36190;54.980;73.388;2023-07-20T07:53:02;98855.84;;;29.70;43.09
50292;BME280;36190;54.980;73.388;2023-07-20T07:55:29;98859.84;;;29.52;43.30
50292;BME280;36190;54.980;73.388;2023-07-20T07:57:56;98850.19;;;29.36;43.81
50292;BME280;36190;54.980;73.388;2023-07-20T08:00:24;98851.72;;;29.25;44.16
50292;BME280;36190;54.980;73.388;2023-07-20T08:02:51;98849.13;;;29.29;44.32
50292;BME280;36190;54.980;73.388;2023-07-20T08:05:19;98846.44;;;29.50;43.79
50292;BME280;36190;54.980;73.388;2023-07-20T08:07:46;98842.00;;;29.79;43.47
50292;BME280;36190;54.980;73.388;2023-07-20T08:10:15;98837.13;;;30.06;42.82
50292;BME280;36190;54.980;73.388;2023-07-20T08:12:42;98835.75;;;30.12;42.74
50292;BME280;36190;54.980;73.388;2023-07-20T08:15:11;98842.41;;;30.11;41.94
50292;BME280;36190;54.980;73.388;2023-07-20T08:17:40;98832.13;;;30.21;41.42
50292;BME280;36190;54.980;73.388;2023-07-20T08:20:09;98842.25;;;30.29;41.07
50292;BME280;36190;54.980;73.388;2023-07-20T08:22:38;98839.03;;;30.27;40.51
50292;BME280;36190;54.980;73.388;2023-07-20T08:25:09;98831.59;;;30.73;39.81
50292;BME280;36190;54.980;73.388;2023-07-20T08:27:37;98831.63;;;31.36;38.95
50292;BME280;36190;54.980;73.388;2023-07-20T08:30:07;98839.03;;;32.01;37.69
50292;BME280;36190;54.980;73.388;2023-07-20T08:32:35;98836.56;;;32.41;36.84
50292;BME280;36190;54.980;73.388;2023-07-20T08:35:03;98825.09;;;32.71;36.11
50292;BME280;36190;54.980;73.388;2023-07-20T08:37:31;98815.41;;;32.93;35.63
50292;BME280;36190;54.980;73.388;2023-07-20T08:39:59;98821.34;;;33.11;34.88
50292;BME280;36190;54.980;73.388;2023-07-20T08:42:27;98825.78;;;33.16;34.31
50292;BME280;36190;54.980;73.388;2023-07-20T08:44:56;98812.78;;;33.16;34.63
50292;BME280;36190;54.980;73.388;2023-07-20T08:47:25;98815.75;;;33.43;34.47
50292;BME280;36190;54.980;73.388;2023-07-20T08:49:55;98820.16;;;33.64;34.08
50292;BME280;36190;54.980;73.388;2023-07-20T08:52:22;98814.13;;;33.78;34.25
50292;BME280;36190;54.980;73.388;2023-07-20T08:54:51;98818.94;;;33.45;34.01
50292;BME280;36190;54.980;73.388;2023-07-20T08:57:21;98818.22;;;32.64;34.28
50292;BME280;36190;54.980;73.388;2023-07-20T08:59:49;98823.91;;;31.95;35.52
50292;BME280;36190;54.980;73.388;2023-07-20T09:02:22;98814.09;;;31.56;36.11
50292;BME280;36190;54.980;73.388;2023-07-20T09:04:51;98819.78;;;31.89;36.01
50292;BME280;36190;54.980;73.388;2023-07-20T09:07:19;98817.25;;;32.73;35.05
50292;BME280;36190;54.980;73.388;2023-07-20T09:09:47;98815.94;;;33.70;33.64
50292;BME280;36190;54.980;73.388;2023-07-20T09:12:15;98816.75;;;34.34;32.62
50292;BME280;36190;54.980;73.388;2023-07-20T09:14:43;98810.66;;;34.48;32.01
50292;BME280;36190;54.980;73.388;2023-07-20T09:17:13;98832.69;;;33.97;32.19
50292;BME280;36190;54.980;73.388;2023-07-20T09:19:47;98812.47;;;33.02;33.55
50292;BME280;36190;54.980;73.388;2023-07-20T09:22:14;98814.47;;;32.41;34.48
50292;BME280;36190;54.980;73.388;2023-07-20T09:24:43;98817.34;;;32.16;34.95
50292;BME280;36190;54.980;73.388;2023-07-20T09:27:11;98824.78;;;31.99;35.13
50292;BME280;36190;54.980;73.388;2023-07-20T09:29:48;98835.88;;;31.87;35.49
50292;BME280;36190;54.980;73.388;2023-07-20T09:32:19;98824.44;;;31.60;36.08
50292;BME280;36190;54.980;73.388;2023-07-20T09:34:49;98822.44;;;31.32;36.74
50292;BME280;36190;54.980;73.388;2023-07-20T09:37:20;98826.78;;;31.20;37.14
50292;BME280;36190;54.980;73.388;2023-07-20T09:39:48;98827.94;;;31.07;37.40
50292;BME280;36190;54.980;73.388;2023-07-20T09:42:18;98820.59;;;31.11;37.27
50292;BME280;36190;54.980;73.388;2023-07-20T09:44:46;98837.59;;;31.25;36.90
50292;BME280;36190;54.980;73.388;2023-07-20T09:47:21;98825.88;;;31.28;36.65
50292;BME280;36190;54.980;73.388;2023-07-20T09:49:57;98832.41;;;31.36;36.23
50292;BME280;36190;54.980;73.388;2023-07-20T09:52:25;98835.16;;;31.49;36.13
50292;BME280;36190;54.980;73.388;2023-07-20T09:54:54;98825.09;;;31.81;35.67
50292;BME280;36190;54.980;73.388;2023-07-20T09:57:22;98830.06;;;32.81;34.28
50292;BME280;36190;54.980;73.388;2023-07-20T09:59:50;98821.53;;;33.54;33.42
50292;BME280;36190;54.980;73.388;2023-07-20T10:02:20;98823.22;;;33.59;33.46
50292;BME280;36190;54.980;73.388;2023-07-20T10:04:53;98829.47;;;33.40;34.11
50292;BME280;36190;54.980;73.388;2023-07-20T10:07:22;98836.16;;;33.03;34.95
50292;BME280;36190;54.980;73.388;2023-07-20T10:09:54;98841.75;;;32.90;35.47
50292;BME280;36190;54.980;73.388;2023-07-20T10:12:23;98835.28;;;32.99;35.43
50292;BME280;36190;54.980;73.388;2023-07-20T10:15:04;98847.53;;;32.85;35.53
50292;BME280;36190;54.980;73.388;2023-07-20T10:17:37;98845.22;;;32.55;36.09
50292;BME280;36190;54.980;73.388;2023-07-20T10:20:10;98838.56;;;32.28;36.66
50292;BME280;36190;54.980;73.388;2023-07-20T10:22:38;98858.06;;;32.06;37.14
50292;BME280;36190;54.980;73.388;2023-07-20T10:25:07;98857.22;;;31.90;37.48
50292;BME280;36190;54.980;73.388;2023-07-20T10:27:34;98862.28;;;31.88;37.76
50292;BME280;36190;54.980;73.388;2023-07-20T10:30:02;98868.50;;;31.85;37.60
50292;BME280;36190;54.980;73.388;2023-07-20T10:32:30;98868.50;;;31.85;37.69
50292;BME280;36190;54.980;73.388;2023-07-20T10:34:57;98862.41;;;31.91;37.70
50292;BME280;36190;54.980;73.388;2023-07-20T10:37:47;98868.44;;;32.09;37.60
50292;BME280;36190;54.980;73.388;2023-07-20T10:40:26;98866.03;;;32.24;37.11
50292;BME280;36190;54.980;73.388;2023-07-20T10:43:02;98869.91;;;32.35;36.88
50292;BME280;36190;54.980;73.388;2023-07-20T10:45:39;98874.31;;;32.53;36.64
50292;BME280;36190;54.980;73.388;2023-07-20T10:48:13;98870.31;;;32.50;36.28
50292;BME280;36190;54.980;73.388;2023-07-20T10:50:41;98872.38;;;32.53;36.33
50292;BME280;36190;54.980;73.388;2023-07-20T10:53:14;98892.47;;;32.54;36.39
50292;BME280;36190;54.980;73.388;2023-07-20T10:55:42;98881.19;;;32.43;36.42
50292;BME280;36190;54.980;73.388;2023-07-20T10:58:13;98878.84;;;32.45;36.05
50292;BME280;36190;54.980;73.388;2023-07-20T11:01:01;98894.91;;;32.55;36.38
50292;BME280;36190;54.980;73.388;2023-07-20T11:03:30;98895.41;;;32.45;36.54
50292;BME280;36190;54.980;73.388;2023-07-20T11:05:58;98897.03;;;32.46;36.24
50292;BME280;36190;54.980;73.388;2023-07-20T11:08:44;98892.47;;;32.54;37.10
50292;BME280;36190;54.980;73.388;2023-07-20T11:11:22;98888.59;;;32.26;38.57
50292;BME280;36190;54.980;73.388;2023-07-20T11:13:57;98881.81;;;31.82;40.05
50292;BME280;36190;54.980;73.388;2023-07-20T11:16:42;98878.88;;;31.63;41.21
50292;BME280;36190;54.980;73.388;2023-07-20T11:19:17;98880.84;;;32.32;40.59
50292;BME280;36190;54.980;73.388;2023-07-20T11:21:45;98880.06;;;32.76;39.51
50292;BME280;36190;54.980;73.388;2023-07-20T11:24:14;98870.25;;;33.11;38.81
50292;BME280;36190;54.980;73.388;2023-07-20T11:26:42;98864.41;;;33.84;37.52
50292;BME280;36190;54.980;73.388;2023-07-20T11:29:10;98861.38;;;34.52;36.65
50292;BME280;36190;54.980;73.388;2023-07-20T11:31:38;98862.81;;;34.89;36.05
50292;BME280;36190;54.980;73.388;2023-07-20T11:34:07;98854.56;;;34.69;36.17
50292;BME280;36190;54.980;73.388;2023-07-20T11:36:34;98858.34;;;34.80;35.69
50292;BME280;36190;54.980;73.388;2023-07-20T11:39:02;98859.44;;;35.26;35.31
50292;BME280;36190;54.980;73.388;2023-07-20T11:41:32;98850.88;;;34.84;34.92
50292;BME280;36190;54.980;73.388;2023-07-20T11:44:00;98846.50;;;34.17;36.08
50292;BME280;36190;54.980;73.388;2023-07-20T11:46:28;98841.25;;;33.37;37.14
50292;BME280;36190;54.980;73.388;2023-07-20T11:48:57;98845.94;;;32.68;38.37
50292;BME280;36190;54.980;73.388;2023-07-20T11:51:26;98852.97;;;32.21;39.20
50292;BME280;36190;54.980;73.388;2023-07-20T11:53:54;98852.13;;;32.49;38.95
50292;BME280;36190;54.980;73.388;2023-07-20T11:56:22;98835.75;;;32.40;38.81
50292;BME280;36190;54.980;73.388;2023-07-20T11:58:55;98842.25;;;32.03;39.26
50292;BME280;36190;54.980;73.388;2023-07-20T12:01:25;98847.28;;;31.60;39.71
50292;BME280;36190;54.980;73.388;2023-07-20T12:03:55;98837.13;;;31.11;40.46
50292;BME280;36190;54.980;73.388;2023-07-20T12:06:24;98848.03;;;30.82;40.68
50292;BME280;36190;54.980;73.388;2023-07-20T12:08:54;98877.81;;;30.68;41.11
50292;BME280;36190;54.980;73.388;2023-07-20T12:11:36;98875.81;;;30.56;41.65
50292;BME280;36190;54.980;73.388;2023-07-20T12:14:07;98877.00;;;30.12;42.06
50292;BME280;36190;54.980;73.388;2023-07-20T12:16:36;98877.56;;;29.84;42.55
50292;BME280;36190;54.980;73.388;2023-07-20T12:19:05;98877.53;;;29.63;42.90
50292;BME280;36190;54.980;73.388;2023-07-20T12:21:34;98864.38;;;29.47;43.39
50292;BME280;36190;54.980;73.388;2023-07-20T12:24:03;98862.94;;;29.41;43.49
50292;BME280;36190;54.980;73.388;2023-07-20T12:26:32;98868.09;;;29.43;43.65
50292;BME280;36190;54.980;73.388;2023-07-20T12:29:00;98866.47;;;29.50;43.68
50292;BME280;36190;54.980;73.388;2023-07-20T12:31:30;98862.63;;;29.73;43.80
50292;BME280;36190;54.980;73.388;2023-07-20T12:33:58;98854.53;;;30.78;42.10
50292;BME280;36190;54.980;73.388;2023-07-20T12:36:25;98873.47;;;33.13;39.25
50292;BME280;36190;54.980;73.388;2023-07-20T12:38:53;98878.19;;;35.33;35.70
50292;BME280;36190;54.980;73.388;2023-07-20T12:41:20;98872.44;;;36.86;33.27
50292;BME280;36190;54.980;73.388;2023-07-20T12:43:48;98874.44;;;38.16;32.03
50292;BME280;36190;54.980;73.388;2023-07-20T12:46:15;98863.00;;;39.04;30.34
50292;BME280;36190;54.980;73.388;2023-07-20T12:48:45;98869.16;;;39.85;29.23
50292;BME280;36190;54.980;73.388;2023-07-20T12:51:12;98859.19;;;40.59;28.11
50292;BME280;36190;54.980;73.388;2023-07-20T12:53:40;98862.22;;;41.28;27.37
50292;BME280;36190;54.980;73.388;2023-07-20T12:56:07;98862.19;;;41.70;26.57
50292;BME280;36190;54.980;73.388;2023-07-20T12:58:34;98878.47;;;42.10;25.79